sensor_id;sensor_type;location;lat;lon;timestamp;P1;durP1;ratioP1;P2;durP2;ratioP2
39400;SDS011;54391;50.000;7.360;2023-06-26T00:00:33;7.95;;;5.15;;
39400;SDS011;54391;50.000;7.360;2023-06-26T00:03:02;7.68;;;5.10;;
39400;SDS011;54391;50.000;7.360;2023-06-26T00:05:29;7.53;;;5.18;;
39400;SDS011;54391;50.000;7.360;2023-06-26T00:07:58;6.57;;;4.78;;
39400;SDS011;54391;50.000;7.360;2023-06-26T00:10:27;6.35;;;4.50;;
39400;SDS011;54391;50.000;7.360;2023-06-26T00:12:54;8.25;;;4.80;;
39400;SDS011;54391;50.000;7.360;2023-06-26T00:15:21;7.10;;;4.97;;
39400;SDS011;54391;50.000;7.360;2023-06-26T00:17:50;9.70;;;5.00;;
39400;SDS011;54391;50.000;7.360;2023-06-26T00:20:17;6.97;;;4.80;;
39400;SDS011;54391;50.000;7.360;2023-06-26T00:22:45;7.80;;;5.35;;
39400;SDS011;54391;50.000;7.360;2023-06-26T00:25:12;7.65;;;5.10;;
39400;SDS011;54391;50.000;7.360;2023-06-26T00:27:39;7.22;;;4.80;;
39400;SDS011;54391;50.000;7.360;2023-06-26T00:30:07;8.15;;;4.80;;
39400;SDS011;54391;50.000;7.360;2023-06-26T00:32:35;7.95;;;4.93;;
39400;SDS011;54391;50.000;7.360;2023-06-26T00:35:04;9.73;;;5.57;;
39400;SDS011;54391;50.000;7.360;2023-06-26T00:37:32;6.60;;;5.03;;
39400;SDS011;54391;50.000;7.360;2023-06-26T00:39:59;8.48;;;5.38;;
39400;SDS011;54391;50.000;7.360;2023-06-26T00:42:28;8.05;;;5.05;;
39400;SDS011;54391;50.000;7.360;2023-06-26T00:44:55;7.25;;;4.88;;
39400;SDS011;54391;50.000;7.360;2023-06-26T00:47:22;6.70;;;4.82;;
39400;SDS011;54391;50.000;7.360;2023-06-26T00:49:50;7.88;;;5.00;;
39400;SDS011;54391;50.000;7.360;2023-06-26T00:52:21;8.77;;;4.82;;
39400;SDS011;54391;50.000;7.360;2023-06-26T00:54:50;6.53;;;4.43;;
39400;SDS011;54391;50.000;7.360;2023-06-26T00:57:17;9.63;;;5.22;;
39400;SDS011;54391;50.000;7.360;2023-06-26T00:59:44;9.70;;;5.15;;
39400;SDS011;54391;50.000;7.360;2023-06-26T01:02:12;8.55;;;5.47;;
39400;SDS011;54391;50.000;7.360;2023-06-26T01:04:45;8.50;;;5.10;;
39400;SDS011;54391;50.000;7.360;2023-06-26T01:07:14;6.50;;;4.82;;
39400;SDS011;54391;50.000;7.360;2023-06-26T01:09:45;11.20;;;5.18;;
39400;SDS011;54391;50.000;7.360;2023-06-26T01:12:14;7.32;;;4.82;;
39400;SDS011;54391;50.000;7.360;2023-06-26T01:14:41;10.68;;;5.47;;
39400;SDS011;54391;50.000;7.360;2023-06-26T01:17:09;6.47;;;4.93;;
39400;SDS011;54391;50.000;7.360;2023-06-26T01:19:40;7.85;;;4.82;;
39400;SDS011;54391;50.000;7.360;2023-06-26T01:22:09;7.82;;;4.93;;
39400;SDS011;54391;50.000;7.360;2023-06-26T01:24:44;8.05;;;5.10;;
39400;SDS011;54391;50.000;7.360;2023-06-26T01:27:21;7.05;;;4.82;;
39400;SDS011;54391;50.000;7.360;2023-06-26T01:29:49;7.57;;;5.43;;
39400;SDS011;54391;50.000;7.360;2023-06-26T01:32:18;7.10;;;5.05;;
39400;SDS011;54391;50.000;7.360;2023-06-26T01:34:45;7.35;;;5.22;;
39400;SDS011;54391;50.000;7.360;2023-06-26T01:37:13;7.05;;;5.07;;
39400;SDS011;54391;50.000;7.360;2023-06-26T01:39:40;6.40;;;4.82;;
39400;SDS011;54391;50.000;7.360;2023-06-26T01:42:07;8.32;;;4.93;;
39400;SDS011;54391;50.000;7.360;2023-06-26T01:44:39;7.13;;;5.03;;
39400;SDS011;54391;50.000;7.360;2023-06-26T01:47:11;8.25;;;5.43;;
39400;SDS011;54391;50.000;7.360;2023-06-26T01:49:45;8.95;;;5.13;;
39400;SDS011;54391;50.000;7.360;2023-06-26T01:52:18;7.82;;;4.88;;
39400;SDS011;54391;50.000;7.360;2023-06-26T01:54:55;8.73;;;5.15;;
39400;SDS011;54391;50.000;7.360;2023-06-26T01:57:25;8.52;;;5.68;;
39400;SDS011;54391;50.000;7.360;2023-06-26T01:59:55;6.65;;;4.55;;
39400;SDS011;54391;50.000;7.360;2023-06-26T02:02:25;8.90;;;5.05;;
39400;SDS011;54391;50.000;7.360;2023-06-26T02:04:52;7.30;;;4.75;;
39400;SDS011;54391;50.000;7.360;2023-06-26T02:07:20;8.80;;;5.25;;
39400;SDS011;54391;50.000;7.360;2023-06-26T02:09:47;8.80;;;5.85;;
39400;SDS011;54391;50.000;7.360;2023-06-26T02:12:15;7.53;;;5.03;;
39400;SDS011;54391;50.000;7.360;2023-06-26T02:14:43;7.75;;;5.80;;
39400;SDS011;54391;50.000;7.360;2023-06-26T02:17:12;8.93;;;5.82;;
39400;SDS011;54391;50.000;7.360;2023-06-26T02:19:39;8.13;;;5.47;;
39400;SDS011;54391;50.000;7.360;2023-06-26T02:22:13;9.20;;;5.72;;
39400;SDS011;54391;50.000;7.360;2023-06-26T02:24:40;8.88;;;5.75;;
39400;SDS011;54391;50.000;7.360;2023-06-26T02:27:07;8.02;;;5.18;;
39400;SDS011;54391;50.000;7.360;2023-06-26T02:29:35;8.40;;;5.35;;
39400;SDS011;54391;50.000;7.360;2023-06-26T02:32:03;8.98;;;5.25;;
39400;SDS011;54391;50.000;7.360;2023-06-26T02:34:31;8.00;;;5.05;;
39400;SDS011;54391;50.000;7.360;2023-06-26T02:37:00;8.40;;;5.60;;
39400;SDS011;54391;50.000;7.360;2023-06-26T02:39:27;8.07;;;5.30;;
39400;SDS011;54391;50.000;7.360;2023-06-26T02:41:54;11.63;;;5.18;;
39400;SDS011;54391;50.000;7.360;2023-06-26T02:44:23;9.75;;;5.40;;
39400;SDS011;54391;50.000;7.360;2023-06-26T02:46:50;6.65;;;4.95;;
39400;SDS011;54391;50.000;7.360;2023-06-26T02:49:17;8.23;;;5.35;;
39400;SDS011;54391;50.000;7.360;2023-06-26T02:51:46;9.38;;;4.57;;
39400;SDS011;54391;50.000;7.360;2023-06-26T02:54:21;7.72;;;5.45;;
39400;SDS011;54391;50.000;7.360;2023-06-26T02:56:52;8.23;;;5.60;;
39400;SDS011;54391;50.000;7.360;2023-06-26T02:59:24;8.70;;;5.20;;
39400;SDS011;54391;50.000;7.360;2023-06-26T03:01:53;8.73;;;5.25;;
39400;SDS011;54391;50.000;7.360;2023-06-26T03:04:26;7.88;;;5.00;;
39400;SDS011;54391;50.000;7.360;2023-06-26T03:06:55;8.77;;;5.30;;
39400;SDS011;54391;50.000;7.360;2023-06-26T03:09:22;8.13;;;5.32;;
39400;SDS011;54391;50.000;7.360;2023-06-26T03:11:49;8.95;;;4.80;;
39400;SDS011;54391;50.000;7.360;2023-06-26T03:14:20;7.68;;;5.30;;
39400;SDS011;54391;50.000;7.360;2023-06-26T03:16:47;7.25;;;5.22;;
39400;SDS011;54391;50.000;7.360;2023-06-26T03:19:14;7.30;;;4.60;;
39400;SDS011;54391;50.000;7.360;2023-06-26T03:22:18;7.78;;;4.53;;
39400;SDS011;54391;50.000;7.360;2023-06-26T03:24:45;7.72;;;5.45;;
39400;SDS011;54391;50.000;7.360;2023-06-26T03:27:13;9.00;;;5.55;;
39400;SDS011;54391;50.000;7.360;2023-06-26T03:29:40;7.60;;;5.13;;
39400;SDS011;54391;50.000;7.360;2023-06-26T03:32:08;8.68;;;5.45;;
39400;SDS011;54391;50.000;7.360;2023-06-26T03:34:36;6.90;;;5.18;;
39400;SDS011;54391;50.000;7.360;2023-06-26T03:37:05;8.02;;;5.45;;
39400;SDS011;54391;50.000;7.360;2023-06-26T03:39:33;8.63;;;5.30;;
39400;SDS011;54391;50.000;7.360;2023-06-26T03:42:01;6.55;;;4.63;;
39400;SDS011;54391;50.000;7.360;2023-06-26T03:44:29;8.65;;;5.22;;
39400;SDS011;54391;50.000;7.360;2023-06-26T03:46:56;9.27;;;5.40;;
39400;SDS011;54391;50.000;7.360;2023-06-26T03:49:23;7.78;;;4.90;;
39400;SDS011;54391;50.000;7.360;2023-06-26T03:51:51;7.85;;;5.40;;
39400;SDS011;54391;50.000;7.360;2023-06-26T03:54:18;7.30;;;4.85;;
39400;SDS011;54391;50.000;7.360;2023-06-26T03:56:48;7.32;;;4.75;;
39400;SDS011;54391;50.000;7.360;2023-06-26T03:59:16;7.03;;;5.00;;
39400;SDS011;54391;50.000;7.360;2023-06-26T04:01:43;9.38;;;5.55;;
39400;SDS011;54391;50.000;7.360;2023-06-26T04:04:13;9.00;;;5.50;;
39400;SDS011;54391;50.000;7.360;2023-06-26T04:06:40;8.32;;;5.05;;
39400;SDS011;54391;50.000;7.360;2023-06-26T04:09:07;7.35;;;5.22;;
39400;SDS011;54391;50.000;7.360;2023-06-26T04:11:34;9.48;;;5.43;;
39400;SDS011;54391;50.000;7.360;2023-06-26T04:14:03;10.27;;;5.80;;
39400;SDS011;54391;50.000;7.360;2023-06-26T04:16:30;8.20;;;5.15;;
39400;SDS011;54391;50.000;7.360;2023-06-26T04:18:57;8.73;;;5.43;;
39400;SDS011;54391;50.000;7.360;2023-06-26T04:21:24;10.27;;;5.90;;
39400;SDS011;54391;50.000;7.360;2023-06-26T04:23:51;9.00;;;5.90;;
39400;SDS011;54391;50.000;7.360;2023-06-26T04:26:19;8.80;;;5.25;;
39400;SDS011;54391;50.000;7.360;2023-06-26T04:28:46;7.72;;;5.38;;
39400;SDS011;54391;50.000;7.360;2023-06-26T04:31:14;8.18;;;5.07;;
39400;SDS011;54391;50.000;7.360;2023-06-26T04:33:42;7.90;;;5.15;;
39400;SDS011;54391;50.000;7.360;2023-06-26T04:36:09;9.73;;;5.45;;
39400;SDS011;54391;50.000;7.360;2023-06-26T04:38:36;10.05;;;5.53;;
39400;SDS011;54391;50.000;7.360;2023-06-26T04:41:04;8.60;;;5.57;;
39400;SDS011;54391;50.000;7.360;2023-06-26T04:43:31;8.93;;;5.82;;
39400;SDS011;54391;50.000;7.360;2023-06-26T04:45:58;7.75;;;5.55;;
39400;SDS011;54391;50.000;7.360;2023-06-26T04:48:26;8.52;;;5.95;;
39400;SDS011;54391;50.000;7.360;2023-06-26T04:50:54;7.68;;;5.35;;
39400;SDS011;54391;50.000;7.360;2023-06-26T04:53:21;10.23;;;5.93;;
39400;SDS011;54391;50.000;7.360;2023-06-26T04:55:49;9.45;;;5.93;;
39400;SDS011;54391;50.000;7.360;2023-06-26T04:58:16;9.45;;;5.55;;
39400;SDS011;54391;50.000;7.360;2023-06-26T05:00:44;8.90;;;5.85;;
39400;SDS011;54391;50.000;7.360;2023-06-26T05:03:11;10.18;;;5.88;;
39400;SDS011;54391;50.000;7.360;2023-06-26T05:05:40;9.27;;;5.32;;
39400;SDS011;54391;50.000;7.360;2023-06-26T05:08:14;7.43;;;5.28;;
39400;SDS011;54391;50.000;7.360;2023-06-26T05:10:41;8.40;;;5.70;;
39400;SDS011;54391;50.000;7.360;2023-06-26T05:13:09;9.95;;;5.90;;
39400;SDS011;54391;50.000;7.360;2023-06-26T05:15:36;9.32;;;5.57;;
39400;SDS011;54391;50.000;7.360;2023-06-26T05:18:04;9.32;;;5.70;;
39400;SDS011;54391;50.000;7.360;2023-06-26T05:20:31;8.70;;;5.70;;
39400;SDS011;54391;50.000;7.360;2023-06-26T05:23:00;9.48;;;6.00;;
39400;SDS011;54391;50.000;7.360;2023-06-26T05:25:28;9.63;;;5.40;;
39400;SDS011;54391;50.000;7.360;2023-06-26T05:27:56;9.55;;;5.93;;
39400;SDS011;54391;50.000;7.360;2023-06-26T05:30:24;9.13;;;6.10;;
39400;SDS011;54391;50.000;7.360;2023-06-26T05:32:52;8.07;;;5.10;;
39400;SDS011;54391;50.000;7.360;2023-06-26T05:35:20;9.20;;;5.32;;
39400;SDS011;54391;50.000;7.360;2023-06-26T05:37:48;9.32;;;5.82;;
39400;SDS011;54391;50.000;7.360;2023-06-26T05:40:18;10.43;;;5.70;;
39400;SDS011;54391;50.000;7.360;2023-06-26T05:42:46;6.95;;;5.47;;
39400;SDS011;54391;50.000;7.360;2023-06-26T05:45:14;9.88;;;6.25;;
39400;SDS011;54391;50.000;7.360;2023-06-26T05:47:41;10.15;;;5.88;;
39400;SDS011;54391;50.000;7.360;2023-06-26T05:50:09;9.60;;;6.50;;
39400;SDS011;54391;50.000;7.360;2023-06-26T05:52:37;9.52;;;5.57;;
39400;SDS011;54391;50.000;7.360;2023-06-26T05:55:05;8.75;;;5.97;;
39400;SDS011;54391;50.000;7.360;2023-06-26T05:57:34;8.68;;;5.90;;
39400;SDS011;54391;50.000;7.360;2023-06-26T06:00:04;7.57;;;5.30;;
39400;SDS011;54391;50.000;7.360;2023-06-26T06:02:38;8.00;;;5.97;;
39400;SDS011;54391;50.000;7.360;2023-06-26T06:05:06;8.00;;;5.78;;
39400;SDS011;54391;50.000;7.360;2023-06-26T06:07:34;8.30;;;5.95;;
39400;SDS011;54391;50.000;7.360;2023-06-26T06:10:03;10.43;;;6.15;;
39400;SDS011;54391;50.000;7.360;2023-06-26T06:12:35;8.60;;;6.15;;
39400;SDS011;54391;50.000;7.360;2023-06-26T06:15:02;9.10;;;6.68;;
39400;SDS011;54391;50.000;7.360;2023-06-26T06:17:29;8.20;;;5.90;;
39400;SDS011;54391;50.000;7.360;2023-06-26T06:19:57;13.68;;;6.65;;
39400;SDS011;54391;50.000;7.360;2023-06-26T06:22:24;10.30;;;6.97;;
39400;SDS011;54391;50.000;7.360;2023-06-26T06:24:52;9.57;;;6.32;;
39400;SDS011;54391;50.000;7.360;2023-06-26T06:27:19;8.95;;;5.80;;
39400;SDS011;54391;50.000;7.360;2023-06-26T06:29:48;8.57;;;5.82;;
39400;SDS011;54391;50.000;7.360;2023-06-26T06:32:15;10.90;;;6.60;;
39400;SDS011;54391;50.000;7.360;2023-06-26T06:34:43;10.48;;;5.97;;
39400;SDS011;54391;50.000;7.360;2023-06-26T06:37:10;9.55;;;6.93;;
39400;SDS011;54391;50.000;7.360;2023-06-26T06:39:37;10.55;;;6.47;;
39400;SDS011;54391;50.000;7.360;2023-06-26T06:42:05;9.38;;;6.68;;
39400;SDS011;54391;50.000;7.360;2023-06-26T06:44:32;8.63;;;5.78;;
39400;SDS011;54391;50.000;7.360;2023-06-26T06:47:01;8.70;;;6.07;;
39400;SDS011;54391;50.000;7.360;2023-06-26T06:49:28;10.18;;;7.25;;
39400;SDS011;54391;50.000;7.360;2023-06-26T06:51:56;9.45;;;6.20;;
39400;SDS011;54391;50.000;7.360;2023-06-26T06:54:25;7.85;;;5.68;;
39400;SDS011;54391;50.000;7.360;2023-06-26T06:56:52;8.93;;;5.85;;
39400;SDS011;54391;50.000;7.360;2023-06-26T06:59:20;7.88;;;5.97;;
39400;SDS011;54391;50.000;7.360;2023-06-26T07:01:47;8.23;;;5.90;;
39400;SDS011;54391;50.000;7.360;2023-06-26T07:04:15;9.63;;;6.43;;
39400;SDS011;54391;50.000;7.360;2023-06-26T07:06:42;8.70;;;6.45;;
39400;SDS011;54391;50.000;7.360;2023-06-26T07:09:11;8.93;;;5.90;;
39400;SDS011;54391;50.000;7.360;2023-06-26T07:11:40;7.95;;;6.40;;
39400;SDS011;54391;50.000;7.360;2023-06-26T07:14:07;10.65;;;6.47;;
39400;SDS011;54391;50.000;7.360;2023-06-26T07:16:34;10.48;;;6.72;;
39400;SDS011;54391;50.000;7.360;2023-06-26T07:19:01;9.80;;;6.72;;
39400;SDS011;54391;50.000;7.360;2023-06-26T07:21:30;10.07;;;6.45;;
39400;SDS011;54391;50.000;7.360;2023-06-26T07:23:58;9.80;;;7.30;;
39400;SDS011;54391;50.000;7.360;2023-06-26T07:26:25;10.05;;;6.22;;
39400;SDS011;54391;50.000;7.360;2023-06-26T07:28:52;9.50;;;6.50;;
39400;SDS011;54391;50.000;7.360;2023-06-26T07:31:22;7.97;;;6.55;;
39400;SDS011;54391;50.000;7.360;2023-06-26T07:33:49;8.93;;;5.93;;
39400;SDS011;54391;50.000;7.360;2023-06-26T07:36:16;10.43;;;6.70;;
39400;SDS011;54391;50.000;7.360;2023-06-26T07:38:45;8.63;;;6.78;;
39400;SDS011;54391;50.000;7.360;2023-06-26T07:41:12;8.43;;;6.38;;
39400;SDS011;54391;50.000;7.360;2023-06-26T07:43:39;6.97;;;5.07;;
39400;SDS011;54391;50.000;7.360;2023-06-26T07:46:07;7.88;;;5.68;;
39400;SDS011;54391;50.000;7.360;2023-06-26T07:48:34;7.07;;;5.68;;
39400;SDS011;54391;50.000;7.360;2023-06-26T07:51:01;7.72;;;5.15;;
39400;SDS011;54391;50.000;7.360;2023-06-26T07:53:28;8.13;;;5.38;;
39400;SDS011;54391;50.000;7.360;2023-06-26T07:55:57;7.60;;;5.47;;
39400;SDS011;54391;50.000;7.360;2023-06-26T07:58:24;7.75;;;5.30;;
39400;SDS011;54391;50.000;7.360;2023-06-26T08:00:51;7.45;;;5.28;;
39400;SDS011;54391;50.000;7.360;2023-06-26T08:03:19;9.52;;;6.20;;
39400;SDS011;54391;50.000;7.360;2023-06-26T08:05:46;6.75;;;5.03;;
39400;SDS011;54391;50.000;7.360;2023-06-26T08:08:13;13.40;;;6.25;;
39400;SDS011;54391;50.000;7.360;2023-06-26T08:10:41;6.93;;;5.53;;
39400;SDS011;54391;50.000;7.360;2023-06-26T08:13:09;6.68;;;5.38;;
39400;SDS011;54391;50.000;7.360;2023-06-26T08:15:37;8.38;;;5.85;;
39400;SDS011;54391;50.000;7.360;2023-06-26T08:18:04;7.40;;;5.47;;
39400;SDS011;54391;50.000;7.360;2023-06-26T08:20:31;7.78;;;5.15;;
39400;SDS011;54391;50.000;7.360;2023-06-26T08:23:01;9.48;;;5.25;;
39400;SDS011;54391;50.000;7.360;2023-06-26T08:25:28;7.30;;;5.38;;
39400;SDS011;54391;50.000;7.360;2023-06-26T08:27:55;8.13;;;5.00;;
39400;SDS011;54391;50.000;7.360;2023-06-26T08:30:24;7.97;;;5.35;;
39400;SDS011;54391;50.000;7.360;2023-06-26T08:32:54;8.00;;;5.20;;
39400;SDS011;54391;50.000;7.360;2023-06-26T08:35:21;8.40;;;5.55;;
39400;SDS011;54391;50.000;7.360;2023-06-26T08:37:48;6.18;;;4.97;;
39400;SDS011;54391;50.000;7.360;2023-06-26T08:40:16;6.97;;;5.03;;
39400;SDS011;54391;50.000;7.360;2023-06-26T08:42:44;7.40;;;5.68;;
39400;SDS011;54391;50.000;7.360;2023-06-26T08:45:12;8.38;;;5.70;;
39400;SDS011;54391;50.000;7.360;2023-06-26T08:47:40;7.93;;;6.00;;
39400;SDS011;54391;50.000;7.360;2023-06-26T08:50:10;9.50;;;6.22;;
39400;SDS011;54391;50.000;7.360;2023-06-26T08:52:40;8.30;;;5.93;;
39400;SDS011;54391;50.000;7.360;2023-06-26T08:55:10;8.75;;;6.18;;
39400;SDS011;54391;50.000;7.360;2023-06-26T08:57:40;8.27;;;5.68;;
39400;SDS011;54391;50.000;7.360;2023-06-26T09:00:08;7.40;;;5.07;;
39400;SDS011;54391;50.000;7.360;2023-06-26T09:02:36;7.57;;;5.82;;
39400;SDS011;54391;50.000;7.360;2023-06-26T09:05:06;8.23;;;4.93;;
39400;SDS011;54391;50.000;7.360;2023-06-26T09:07:33;7.75;;;5.00;;
39400;SDS011;54391;50.000;7.360;2023-06-26T09:10:01;8.50;;;4.93;;
39400;SDS011;54391;50.000;7.360;2023-06-26T09:12:28;6.60;;;4.47;;
39400;SDS011;54391;50.000;7.360;2023-06-26T09:14:55;7.05;;;3.97;;
39400;SDS011;54391;50.000;7.360;2023-06-26T09:17:24;5.30;;;4.18;;
39400;SDS011;54391;50.000;7.360;2023-06-26T09:19:52;6.97;;;3.80;;
39400;SDS011;54391;50.000;7.360;2023-06-26T09:22:21;6.30;;;3.97;;
39400;SDS011;54391;50.000;7.360;2023-06-26T09:24:49;5.22;;;3.60;;
39400;SDS011;54391;50.000;7.360;2023-06-26T09:27:17;7.18;;;3.90;;
39400;SDS011;54391;50.000;7.360;2023-06-26T09:29:45;6.28;;;3.25;;
39400;SDS011;54391;50.000;7.360;2023-06-26T09:32:13;5.60;;;3.30;;
39400;SDS011;54391;50.000;7.360;2023-06-26T09:34:41;7.05;;;3.13;;
39400;SDS011;54391;50.000;7.360;2023-06-26T09:37:11;7.00;;;3.30;;
39400;SDS011;54391;50.000;7.360;2023-06-26T09:39:40;3.58;;;2.50;;
39400;SDS011;54391;50.000;7.360;2023-06-26T09:42:08;5.78;;;2.83;;
39400;SDS011;54391;50.000;7.360;2023-06-26T09:44:35;4.00;;;2.97;;
39400;SDS011;54391;50.000;7.360;2023-06-26T09:47:02;4.95;;;2.80;;
39400;SDS011;54391;50.000;7.360;2023-06-26T09:49:30;3.85;;;2.58;;
39400;SDS011;54391;50.000;7.360;2023-06-26T09:51:59;6.07;;;3.03;;
39400;SDS011;54391;50.000;7.360;2023-06-26T09:54:28;5.18;;;3.20;;
39400;SDS011;54391;50.000;7.360;2023-06-26T09:57:07;7.85;;;2.88;;
39400;SDS011;54391;50.000;7.360;2023-06-26T09:59:36;4.85;;;2.60;;
39400;SDS011;54391;50.000;7.360;2023-06-26T10:02:03;5.50;;;2.70;;
39400;SDS011;54391;50.000;7.360;2023-06-26T10:04:31;6.20;;;3.20;;
39400;SDS011;54391;50.000;7.360;2023-06-26T10:06:58;4.72;;;3.00;;
39400;SDS011;54391;50.000;7.360;2023-06-26T10:09:28;6.18;;;3.10;;
39400;SDS011;54391;50.000;7.360;2023-06-26T10:11:57;5.03;;;2.72;;
39400;SDS011;54391;50.000;7.360;2023-06-26T10:14:34;6.22;;;2.90;;
39400;SDS011;54391;50.000;7.360;2023-06-26T10:17:04;5.10;;;2.85;;
39400;SDS011;54391;50.000;7.360;2023-06-26T10:19:36;5.88;;;2.60;;
39400;SDS011;54391;50.000;7.360;2023-06-26T10:22:06;4.80;;;3.08;;
39400;SDS011;54391;50.000;7.360;2023-06-26T10:24:35;5.60;;;2.40;;
39400;SDS011;54391;50.000;7.360;2023-06-26T10:27:04;6.43;;;2.50;;
39400;SDS011;54391;50.000;7.360;2023-06-26T10:29:36;6.85;;;2.40;;
39400;SDS011;54391;50.000;7.360;2023-06-26T10:32:04;7.35;;;2.88;;
39400;SDS011;54391;50.000;7.360;2023-06-26T10:34:34;5.65;;;3.55;;
39400;SDS011;54391;50.000;7.360;2023-06-26T10:37:02;4.50;;;3.17;;
39400;SDS011;54391;50.000;7.360;2023-06-26T10:39:45;5.25;;;3.33;;
39400;SDS011;54391;50.000;7.360;2023-06-26T10:42:14;5.05;;;3.00;;
39400;SDS011;54391;50.000;7.360;2023-06-26T10:44:44;7.40;;;3.40;;
39400;SDS011;54391;50.000;7.360;2023-06-26T10:47:12;5.45;;;3.50;;
39400;SDS011;54391;50.000;7.360;2023-06-26T10:49:55;7.07;;;3.40;;
39400;SDS011;54391;50.000;7.360;2023-06-26T10:52:23;8.55;;;3.13;;
39400;SDS011;54391;50.000;7.360;2023-06-26T10:54:54;5.45;;;3.10;;
39400;SDS011;54391;50.000;7.360;2023-06-26T10:57:23;8.15;;;3.28;;
39400;SDS011;54391;50.000;7.360;2023-06-26T11:05:27;5.20;;;3.63;;
39400;SDS011;54391;50.000;7.360;2023-06-26T11:08:05;6.05;;;3.25;;
39400;SDS011;54391;50.000;7.360;2023-06-26T11:10:49;6.78;;;3.17;;
39400;SDS011;54391;50.000;7.360;2023-06-26T11:13:19;12.90;;;2.83;;
39400;SDS011;54391;50.000;7.360;2023-06-26T11:15:47;5.93;;;2.42;;
39400;SDS011;54391;50.000;7.360;2023-06-26T11:18:17;5.93;;;2.90;;
39400;SDS011;54391;50.000;7.360;2023-06-26T11:20:44;5.25;;;2.58;;
39400;SDS011;54391;50.000;7.360;2023-06-26T11:23:12;6.85;;;3.08;;
39400;SDS011;54391;50.000;7.360;2023-06-26T11:25:39;6.80;;;2.80;;
39400;SDS011;54391;50.000;7.360;2023-06-26T11:28:09;5.20;;;2.72;;
39400;SDS011;54391;50.000;7.360;2023-06-26T11:30:37;6.72;;;2.80;;
39400;SDS011;54391;50.000;7.360;2023-06-26T11:33:08;5.47;;;2.75;;
39400;SDS011;54391;50.000;7.360;2023-06-26T11:35:36;2.88;;;2.20;;
39400;SDS011;54391;50.000;7.360;2023-06-26T11:38:03;7.07;;;2.00;;
39400;SDS011;54391;50.000;7.360;2023-06-26T11:40:32;6.28;;;2.35;;
39400;SDS011;54391;50.000;7.360;2023-06-26T11:43:00;5.43;;;2.25;;
39400;SDS011;54391;50.000;7.360;2023-06-26T11:45:28;6.75;;;2.35;;
39400;SDS011;54391;50.000;7.360;2023-06-26T11:47:56;6.25;;;1.90;;
39400;SDS011;54391;50.000;7.360;2023-06-26T11:50:25;4.50;;;2.20;;
39400;SDS011;54391;50.000;7.360;2023-06-26T11:52:52;5.28;;;2.20;;
39400;SDS011;54391;50.000;7.360;2023-06-26T11:55:21;4.38;;;2.20;;
39400;SDS011;54391;50.000;7.360;2023-06-26T11:57:48;5.38;;;2.20;;
39400;SDS011;54391;50.000;7.360;2023-06-26T12:00:16;2.95;;;1.80;;
39400;SDS011;54391;50.000;7.360;2023-06-26T12:02:45;3.83;;;2.15;;
39400;SDS011;54391;50.000;7.360;2023-06-26T12:05:13;5.05;;;2.00;;
39400;SDS011;54391;50.000;7.360;2023-06-26T12:07:42;6.55;;;2.10;;
39400;SDS011;54391;50.000;7.360;2023-06-26T12:10:12;7.15;;;2.05;;
39400;SDS011;54391;50.000;7.360;2023-06-26T12:12:40;6.47;;;2.13;;
39400;SDS011;54391;50.000;7.360;2023-06-26T12:15:08;5.18;;;2.17;;
39400;SDS011;54391;50.000;7.360;2023-06-26T12:17:42;3.85;;;1.92;;
39400;SDS011;54391;50.000;7.360;2023-06-26T12:20:19;3.97;;;1.88;;
39400;SDS011;54391;50.000;7.360;2023-06-26T12:22:49;6.03;;;2.40;;
39400;SDS011;54391;50.000;7.360;2023-06-26T12:25:21;6.50;;;2.50;;
39400;SDS011;54391;50.000;7.360;2023-06-26T12:27:48;4.88;;;2.00;;
39400;SDS011;54391;50.000;7.360;2023-06-26T12:30:16;5.05;;;2.28;;
39400;SDS011;54391;50.000;7.360;2023-06-26T12:32:46;5.88;;;2.05;;
39400;SDS011;54391;50.000;7.360;2023-06-26T12:35:13;6.95;;;2.20;;
39400;SDS011;54391;50.000;7.360;2023-06-26T12:37:41;6.32;;;1.80;;
39400;SDS011;54391;50.000;7.360;2023-06-26T12:40:18;4.88;;;2.05;;
39400;SDS011;54391;50.000;7.360;2023-06-26T12:42:47;3.40;;;2.17;;
39400;SDS011;54391;50.000;7.360;2023-06-26T12:45:14;5.70;;;1.70;;
39400;SDS011;54391;50.000;7.360;2023-06-26T12:47:42;4.80;;;2.10;;
39400;SDS011;54391;50.000;7.360;2023-06-26T12:50:09;6.90;;;1.70;;
39400;SDS011;54391;50.000;7.360;2023-06-26T12:52:37;3.92;;;1.88;;
39400;SDS011;54391;50.000;7.360;2023-06-26T12:55:05;3.30;;;1.90;;
39400;SDS011;54391;50.000;7.360;2023-06-26T12:57:34;5.15;;;1.85;;
39400;SDS011;54391;50.000;7.360;2023-06-26T13:00:02;4.47;;;1.80;;
39400;SDS011;54391;50.000;7.360;2023-06-26T13:02:30;3.10;;;2.15;;
39400;SDS011;54391;50.000;7.360;2023-06-26T13:04:57;4.15;;;1.63;;
39400;SDS011;54391;50.000;7.360;2023-06-26T13:07:25;4.53;;;2.10;;
39400;SDS011;54391;50.000;7.360;2023-06-26T13:09:52;5.63;;;1.70;;
39400;SDS011;54391;50.000;7.360;2023-06-26T13:12:20;4.05;;;1.80;;
39400;SDS011;54391;50.000;7.360;2023-06-26T13:14:49;5.47;;;1.67;;
39400;SDS011;54391;50.000;7.360;2023-06-26T13:17:16;3.80;;;1.85;;
39400;SDS011;54391;50.000;7.360;2023-06-26T13:19:44;3.63;;;1.30;;
39400;SDS011;54391;50.000;7.360;2023-06-26T13:22:11;6.05;;;1.38;;
39400;SDS011;54391;50.000;7.360;2023-06-26T13:24:38;5.40;;;1.73;;
39400;SDS011;54391;50.000;7.360;2023-06-26T13:27:06;3.47;;;1.50;;
39400;SDS011;54391;50.000;7.360;2023-06-26T13:29:34;4.57;;;1.80;;
39400;SDS011;54391;50.000;7.360;2023-06-26T13:32:03;6.97;;;2.40;;
39400;SDS011;54391;50.000;7.360;2023-06-26T13:34:31;3.50;;;1.63;;
39400;SDS011;54391;50.000;7.360;2023-06-26T13:36:58;6.85;;;1.77;;
39400;SDS011;54391;50.000;7.360;2023-06-26T13:39:27;4.85;;;2.17;;
39400;SDS011;54391;50.000;7.360;2023-06-26T13:41:54;4.25;;;1.70;;
39400;SDS011;54391;50.000;7.360;2023-06-26T13:44:22;5.47;;;1.80;;
39400;SDS011;54391;50.000;7.360;2023-06-26T13:46:50;4.30;;;1.92;;
39400;SDS011;54391;50.000;7.360;2023-06-26T13:49:20;3.17;;;1.60;;
39400;SDS011;54391;50.000;7.360;2023-06-26T13:51:47;5.35;;;1.50;;
39400;SDS011;54391;50.000;7.360;2023-06-26T13:54:14;4.70;;;1.85;;
39400;SDS011;54391;50.000;7.360;2023-06-26T13:56:43;6.97;;;1.52;;
39400;SDS011;54391;50.000;7.360;2023-06-26T13:59:10;6.55;;;1.50;;
39400;SDS011;54391;50.000;7.360;2023-06-26T14:01:39;3.97;;;1.83;;
39400;SDS011;54391;50.000;7.360;2023-06-26T14:04:07;4.07;;;1.55;;
39400;SDS011;54391;50.000;7.360;2023-06-26T14:06:36;4.28;;;1.85;;
39400;SDS011;54391;50.000;7.360;2023-06-26T14:09:03;6.10;;;1.77;;
39400;SDS011;54391;50.000;7.360;2023-06-26T14:11:32;4.10;;;1.45;;
39400;SDS011;54391;50.000;7.360;2023-06-26T14:13:59;3.97;;;1.30;;
39400;SDS011;54391;50.000;7.360;2023-06-26T14:16:28;3.47;;;1.60;;
39400;SDS011;54391;50.000;7.360;2023-06-26T14:18:55;4.43;;;1.75;;
39400;SDS011;54391;50.000;7.360;2023-06-26T14:21:22;4.63;;;1.85;;
39400;SDS011;54391;50.000;7.360;2023-06-26T14:23:51;9.13;;;1.70;;
39400;SDS011;54391;50.000;7.360;2023-06-26T14:26:18;4.90;;;1.90;;
39400;SDS011;54391;50.000;7.360;2023-06-26T14:28:45;5.55;;;1.75;;
39400;SDS011;54391;50.000;7.360;2023-06-26T14:31:13;3.53;;;1.83;;
39400;SDS011;54391;50.000;7.360;2023-06-26T14:33:40;2.65;;;1.30;;
39400;SDS011;54391;50.000;7.360;2023-06-26T14:36:08;4.07;;;1.63;;
39400;SDS011;54391;50.000;7.360;2023-06-26T14:38:35;4.43;;;1.73;;
39400;SDS011;54391;50.000;7.360;2023-06-26T14:41:03;4.05;;;1.55;;
39400;SDS011;54391;50.000;7.360;2023-06-26T14:43:31;3.92;;;1.60;;
39400;SDS011;54391;50.000;7.360;2023-06-26T14:45:58;5.50;;;1.65;;
39400;SDS011;54391;50.000;7.360;2023-06-26T14:48:27;5.25;;;1.70;;
39400;SDS011;54391;50.000;7.360;2023-06-26T14:50:54;4.25;;;1.70;;
39400;SDS011;54391;50.000;7.360;2023-06-26T14:53:21;3.45;;;1.50;;
39400;SDS011;54391;50.000;7.360;2023-06-26T14:55:49;2.83;;;1.55;;
39400;SDS011;54391;50.000;7.360;2023-06-26T14:58:18;5.55;;;1.60;;
39400;SDS011;54391;50.000;7.360;2023-06-26T15:00:46;5.53;;;1.65;;